sensor_id;sensor_type;location;lat;lon;timestamp;P1;durP1;ratioP1;P2;durP2;ratioP2
8665;SDS011;4370;48.916;8.380;2022-07-10T00:00:32;3.10;;;2.90;;
8665;SDS011;4370;48.916;8.380;2022-07-10T00:02:59;2.90;;;2.70;;
8665;SDS011;4370;48.916;8.380;2022-07-10T00:05:25;4.63;;;3.00;;
8665;SDS011;4370;48.916;8.380;2022-07-10T00:07:51;3.00;;;2.80;;
8665;SDS011;4370;48.916;8.380;2022-07-10T00:10:17;3.10;;;2.90;;
8665;SDS011;4370;48.916;8.380;2022-07-10T00:12:44;3.23;;;2.87;;
8665;SDS011;4370;48.916;8.380;2022-07-10T00:15:10;3.30;;;3.00;;
8665;SDS011;4370;48.916;8.380;2022-07-10T00:17:36;3.00;;;2.80;;
8665;SDS011;4370;48.916;8.380;2022-07-10T00:20:04;3.03;;;2.80;;
8665;SDS011;4370;48.916;8.380;2022-07-10T00:22:30;3.07;;;2.70;;
8665;SDS011;4370;48.916;8.380;2022-07-10T00:24:56;2.93;;;2.73;;
8665;SDS011;4370;48.916;8.380;2022-07-10T00:27:22;3.20;;;2.90;;
8665;SDS011;4370;48.916;8.380;2022-07-10T00:29:48;3.53;;;3.23;;
8665;SDS011;4370;48.916;8.380;2022-07-10T00:32:14;3.33;;;3.03;;
8665;SDS011;4370;48.916;8.380;2022-07-10T00:34:40;3.30;;;3.00;;
8665;SDS011;4370;48.916;8.380;2022-07-10T00:37:05;3.43;;;3.13;;
8665;SDS011;4370;48.916;8.380;2022-07-10T00:39:31;3.20;;;2.87;;
8665;SDS011;4370;48.916;8.380;2022-07-10T00:42:11;3.20;;;3.00;;
8665;SDS011;4370;48.916;8.380;2022-07-10T00:44:38;2.87;;;2.67;;
8665;SDS011;4370;48.916;8.380;2022-07-10T00:47:04;3.63;;;3.30;;
8665;SDS011;4370;48.916;8.380;2022-07-10T00:49:34;3.97;;;3.03;;
8665;SDS011;4370;48.916;8.380;2022-07-10T00:52:02;3.23;;;3.03;;
8665;SDS011;4370;48.916;8.380;2022-07-10T00:54:30;3.77;;;3.47;;
8665;SDS011;4370;48.916;8.380;2022-07-10T00:56:57;3.33;;;3.13;;
8665;SDS011;4370;48.916;8.380;2022-07-10T00:59:23;3.20;;;3.00;;
8665;SDS011;4370;48.916;8.380;2022-07-10T01:01:49;3.63;;;3.30;;
8665;SDS011;4370;48.916;8.380;2022-07-10T01:04:15;3.97;;;3.30;;
8665;SDS011;4370;48.916;8.380;2022-07-10T01:06:42;3.30;;;3.00;;
8665;SDS011;4370;48.916;8.380;2022-07-10T01:09:08;3.40;;;3.20;;
8665;SDS011;4370;48.916;8.380;2022-07-10T01:11:34;4.47;;;3.90;;
8665;SDS011;4370;48.916;8.380;2022-07-10T01:14:01;5.10;;;4.57;;
8665;SDS011;4370;48.916;8.380;2022-07-10T01:16:27;4.30;;;3.50;;
8665;SDS011;4370;48.916;8.380;2022-07-10T01:18:54;4.47;;;3.37;;
8665;SDS011;4370;48.916;8.380;2022-07-10T01:21:38;3.40;;;3.10;;
8665;SDS011;4370;48.916;8.380;2022-07-10T01:24:05;3.43;;;3.13;;
8665;SDS011;4370;48.916;8.380;2022-07-10T01:26:33;3.80;;;3.30;;
8665;SDS011;4370;48.916;8.380;2022-07-10T01:29:03;5.47;;;3.60;;
8665;SDS011;4370;48.916;8.380;2022-07-10T01:31:30;3.57;;;2.83;;
8665;SDS011;4370;48.916;8.380;2022-07-10T01:33:56;3.33;;;3.00;;
8665;SDS011;4370;48.916;8.380;2022-07-10T01:36:22;5.77;;;3.13;;
8665;SDS011;4370;48.916;8.380;2022-07-10T01:38:51;3.73;;;2.80;;
8665;SDS011;4370;48.916;8.380;2022-07-10T01:41:18;3.60;;;2.83;;
8665;SDS011;4370;48.916;8.380;2022-07-10T01:43:44;6.50;;;2.93;;
8665;SDS011;4370;48.916;8.380;2022-07-10T01:46:10;5.57;;;2.87;;
8665;SDS011;4370;48.916;8.380;2022-07-10T01:51:43;3.60;;;2.87;;
8665;SDS011;4370;48.916;8.380;2022-07-10T01:54:10;3.20;;;2.50;;
8665;SDS011;4370;48.916;8.380;2022-07-10T01:56:36;3.23;;;2.57;;
8665;SDS011;4370;48.916;8.380;2022-07-10T01:59:03;5.77;;;3.17;;
8665;SDS011;4370;48.916;8.380;2022-07-10T02:01:29;5.33;;;2.90;;
8665;SDS011;4370;48.916;8.380;2022-07-10T02:03:55;5.13;;;2.97;;
8665;SDS011;4370;48.916;8.380;2022-07-10T02:06:40;3.20;;;2.63;;
8665;SDS011;4370;48.916;8.380;2022-07-10T02:09:06;4.47;;;2.53;;
8665;SDS011;4370;48.916;8.380;2022-07-10T02:11:31;3.63;;;2.83;;
8665;SDS011;4370;48.916;8.380;2022-07-10T02:13:57;5.27;;;2.77;;
8665;SDS011;4370;48.916;8.380;2022-07-10T02:16:23;3.20;;;2.50;;
8665;SDS011;4370;48.916;8.380;2022-07-10T02:18:49;5.17;;;2.60;;
8665;SDS011;4370;48.916;8.380;2022-07-10T02:21:15;3.87;;;2.93;;
8665;SDS011;4370;48.916;8.380;2022-07-10T02:23:40;3.87;;;2.80;;
8665;SDS011;4370;48.916;8.380;2022-07-10T02:26:07;5.13;;;2.60;;
8665;SDS011;4370;48.916;8.380;2022-07-10T02:28:33;4.07;;;2.73;;
8665;SDS011;4370;48.916;8.380;2022-07-10T02:30:59;4.23;;;2.60;;
8665;SDS011;4370;48.916;8.380;2022-07-10T02:33:25;3.80;;;2.80;;
8665;SDS011;4370;48.916;8.380;2022-07-10T02:35:51;2.80;;;2.50;;
8665;SDS011;4370;48.916;8.380;2022-07-10T02:38:17;4.07;;;2.47;;
8665;SDS011;4370;48.916;8.380;2022-07-10T02:40:43;4.47;;;2.70;;
8665;SDS011;4370;48.916;8.380;2022-07-10T02:43:09;4.23;;;2.70;;
8665;SDS011;4370;48.916;8.380;2022-07-10T02:45:35;3.13;;;2.80;;
8665;SDS011;4370;48.916;8.380;2022-07-10T02:48:01;3.23;;;2.60;;
8665;SDS011;4370;48.916;8.380;2022-07-10T02:50:27;4.50;;;2.70;;
8665;SDS011;4370;48.916;8.380;2022-07-10T02:52:52;3.10;;;2.73;;
8665;SDS011;4370;48.916;8.380;2022-07-10T02:55:18;3.00;;;2.70;;
8665;SDS011;4370;48.916;8.380;2022-07-10T02:57:44;3.33;;;3.03;;
8665;SDS011;4370;48.916;8.380;2022-07-10T03:00:10;7.77;;;2.90;;
8665;SDS011;4370;48.916;8.380;2022-07-10T03:02:36;3.23;;;2.87;;
8665;SDS011;4370;48.916;8.380;2022-07-10T03:05:02;3.97;;;2.50;;
8665;SDS011;4370;48.916;8.380;2022-07-10T03:07:29;5.07;;;2.90;;
8665;SDS011;4370;48.916;8.380;2022-07-10T03:09:54;4.47;;;2.90;;
8665;SDS011;4370;48.916;8.380;2022-07-10T03:12:20;4.47;;;2.53;;
8665;SDS011;4370;48.916;8.380;2022-07-10T03:14:47;6.40;;;2.80;;
8665;SDS011;4370;48.916;8.380;2022-07-10T03:17:13;3.23;;;2.63;;
8665;SDS011;4370;48.916;8.380;2022-07-10T03:19:39;5.53;;;2.60;;
8665;SDS011;4370;48.916;8.380;2022-07-10T03:22:05;4.03;;;3.13;;
8665;SDS011;4370;48.916;8.380;2022-07-10T03:24:30;2.87;;;2.57;;
8665;SDS011;4370;48.916;8.380;2022-07-10T03:26:56;5.47;;;2.70;;
8665;SDS011;4370;48.916;8.380;2022-07-10T03:29:22;2.40;;;2.20;;
8665;SDS011;4370;48.916;8.380;2022-07-10T03:31:48;5.70;;;2.70;;
8665;SDS011;4370;48.916;8.380;2022-07-10T03:34:13;6.77;;;2.60;;
8665;SDS011;4370;48.916;8.380;2022-07-10T03:36:39;3.70;;;2.43;;
8665;SDS011;4370;48.916;8.380;2022-07-10T03:39:05;3.67;;;2.50;;
8665;SDS011;4370;48.916;8.380;2022-07-10T03:41:31;4.60;;;2.40;;
8665;SDS011;4370;48.916;8.380;2022-07-10T03:43:58;3.10;;;2.17;;
8665;SDS011;4370;48.916;8.380;2022-07-10T03:46:24;2.17;;;1.97;;
8665;SDS011;4370;48.916;8.380;2022-07-10T03:48:50;3.60;;;2.40;;
8665;SDS011;4370;48.916;8.380;2022-07-10T03:51:16;2.50;;;2.30;;
8665;SDS011;4370;48.916;8.380;2022-07-10T03:53:42;6.60;;;2.60;;
8665;SDS011;4370;48.916;8.380;2022-07-10T03:56:08;3.30;;;2.27;;
8665;SDS011;4370;48.916;8.380;2022-07-10T03:58:34;3.53;;;2.27;;
8665;SDS011;4370;48.916;8.380;2022-07-10T04:01:00;2.53;;;2.20;;
8665;SDS011;4370;48.916;8.380;2022-07-10T04:03:25;5.33;;;2.43;;
8665;SDS011;4370;48.916;8.380;2022-07-10T04:05:51;4.70;;;2.30;;
8665;SDS011;4370;48.916;8.380;2022-07-10T04:08:16;4.43;;;2.17;;
8665;SDS011;4370;48.916;8.380;2022-07-10T04:10:42;2.50;;;2.30;;
8665;SDS011;4370;48.916;8.380;2022-07-10T04:13:08;2.30;;;2.07;;
8665;SDS011;4370;48.916;8.380;2022-07-10T04:15:34;3.73;;;2.40;;
8665;SDS011;4370;48.916;8.380;2022-07-10T04:18:00;6.13;;;2.23;;
8665;SDS011;4370;48.916;8.380;2022-07-10T04:20:26;3.87;;;2.10;;
8665;SDS011;4370;48.916;8.380;2022-07-10T04:22:52;3.27;;;2.23;;
8665;SDS011;4370;48.916;8.380;2022-07-10T04:25:18;3.50;;;2.10;;
8665;SDS011;4370;48.916;8.380;2022-07-10T04:27:44;4.03;;;2.13;;
8665;SDS011;4370;48.916;8.380;2022-07-10T04:30:10;3.07;;;2.20;;
8665;SDS011;4370;48.916;8.380;2022-07-10T04:32:35;3.83;;;1.97;;
8665;SDS011;4370;48.916;8.380;2022-07-10T04:35:02;2.93;;;2.13;;
8665;SDS011;4370;48.916;8.380;2022-07-10T04:37:28;5.30;;;2.07;;
8665;SDS011;4370;48.916;8.380;2022-07-10T04:39:54;5.00;;;2.57;;
8665;SDS011;4370;48.916;8.380;2022-07-10T04:42:20;4.27;;;2.20;;
8665;SDS011;4370;48.916;8.380;2022-07-10T04:44:46;3.83;;;2.20;;
8665;SDS011;4370;48.916;8.380;2022-07-10T04:47:11;3.40;;;2.10;;
8665;SDS011;4370;48.916;8.380;2022-07-10T04:49:37;4.30;;;2.13;;
8665;SDS011;4370;48.916;8.380;2022-07-10T04:52:04;4.63;;;2.20;;
8665;SDS011;4370;48.916;8.380;2022-07-10T04:54:30;5.93;;;2.17;;
8665;SDS011;4370;48.916;8.380;2022-07-10T04:56:57;4.67;;;1.97;;
8665;SDS011;4370;48.916;8.380;2022-07-10T04:59:22;3.93;;;2.07;;
8665;SDS011;4370;48.916;8.380;2022-07-10T05:01:48;4.03;;;1.90;;
8665;SDS011;4370;48.916;8.380;2022-07-10T05:04:14;4.57;;;2.07;;
8665;SDS011;4370;48.916;8.380;2022-07-10T05:06:40;2.70;;;1.97;;
8665;SDS011;4370;48.916;8.380;2022-07-10T05:09:06;4.50;;;2.17;;
8665;SDS011;4370;48.916;8.380;2022-07-10T05:11:31;3.53;;;2.17;;
8665;SDS011;4370;48.916;8.380;2022-07-10T05:13:57;3.57;;;1.83;;
8665;SDS011;4370;48.916;8.380;2022-07-10T05:16:23;6.90;;;2.10;;
8665;SDS011;4370;48.916;8.380;2022-07-10T05:18:49;5.70;;;2.27;;
8665;SDS011;4370;48.916;8.380;2022-07-10T05:21:15;4.67;;;2.10;;
8665;SDS011;4370;48.916;8.380;2022-07-10T05:23:41;3.97;;;1.90;;
8665;SDS011;4370;48.916;8.380;2022-07-10T05:26:07;4.63;;;2.10;;
8665;SDS011;4370;48.916;8.380;2022-07-10T05:28:33;2.77;;;1.90;;
8665;SDS011;4370;48.916;8.380;2022-07-10T05:30:59;4.33;;;1.87;;
8665;SDS011;4370;48.916;8.380;2022-07-10T05:33:25;4.53;;;2.20;;
8665;SDS011;4370;48.916;8.380;2022-07-10T05:35:54;4.10;;;2.33;;
8665;SDS011;4370;48.916;8.380;2022-07-10T05:38:20;4.10;;;2.00;;
8665;SDS011;4370;48.916;8.380;2022-07-10T05:40:46;7.03;;;1.80;;
8665;SDS011;4370;48.916;8.380;2022-07-10T05:43:13;5.50;;;2.00;;
8665;SDS011;4370;48.916;8.380;2022-07-10T05:45:39;4.47;;;2.13;;
8665;SDS011;4370;48.916;8.380;2022-07-10T05:48:05;2.73;;;1.77;;
8665;SDS011;4370;48.916;8.380;2022-07-10T05:50:31;4.43;;;2.00;;
8665;SDS011;4370;48.916;8.380;2022-07-10T05:52:57;2.97;;;1.80;;
8665;SDS011;4370;48.916;8.380;2022-07-10T05:55:23;4.37;;;1.67;;
8665;SDS011;4370;48.916;8.380;2022-07-10T05:57:49;2.93;;;1.70;;
8665;SDS011;4370;48.916;8.380;2022-07-10T06:00:15;6.77;;;2.30;;
8665;SDS011;4370;48.916;8.380;2022-07-10T06:02:41;3.33;;;1.70;;
8665;SDS011;4370;48.916;8.380;2022-07-10T06:05:07;2.10;;;1.60;;
8665;SDS011;4370;48.916;8.380;2022-07-10T06:07:33;3.37;;;1.70;;
8665;SDS011;4370;48.916;8.380;2022-07-10T06:09:59;6.37;;;1.70;;
8665;SDS011;4370;48.916;8.380;2022-07-10T06:12:25;4.57;;;1.80;;
8665;SDS011;4370;48.916;8.380;2022-07-10T06:14:51;7.03;;;2.00;;
8665;SDS011;4370;48.916;8.380;2022-07-10T06:17:17;5.47;;;1.90;;
8665;SDS011;4370;48.916;8.380;2022-07-10T06:19:43;5.20;;;1.80;;
8665;SDS011;4370;48.916;8.380;2022-07-10T06:22:08;2.83;;;1.60;;
8665;SDS011;4370;48.916;8.380;2022-07-10T06:24:53;3.53;;;1.57;;
8665;SDS011;4370;48.916;8.380;2022-07-10T06:27:19;4.80;;;1.80;;
8665;SDS011;4370;48.916;8.380;2022-07-10T06:29:45;4.27;;;2.03;;
8665;SDS011;4370;48.916;8.380;2022-07-10T06:32:11;5.67;;;2.50;;
8665;SDS011;4370;48.916;8.380;2022-07-10T06:34:37;3.27;;;1.90;;
8665;SDS011;4370;48.916;8.380;2022-07-10T06:37:03;7.37;;;1.83;;
8665;SDS011;4370;48.916;8.380;2022-07-10T06:39:31;3.70;;;2.00;;
8665;SDS011;4370;48.916;8.380;2022-07-10T06:42:04;4.80;;;2.07;;
8665;SDS011;4370;48.916;8.380;2022-07-10T06:44:30;3.67;;;1.97;;
8665;SDS011;4370;48.916;8.380;2022-07-10T06:46:56;4.67;;;2.00;;
8665;SDS011;4370;48.916;8.380;2022-07-10T06:49:41;5.67;;;1.97;;
8665;SDS011;4370;48.916;8.380;2022-07-10T06:52:07;7.87;;;1.63;;
8665;SDS011;4370;48.916;8.380;2022-07-10T06:54:33;6.13;;;1.80;;
8665;SDS011;4370;48.916;8.380;2022-07-10T06:56:59;4.70;;;1.87;;
8665;SDS011;4370;48.916;8.380;2022-07-10T06:59:25;4.90;;;2.13;;
8665;SDS011;4370;48.916;8.380;2022-07-10T07:01:51;3.77;;;1.83;;
8665;SDS011;4370;48.916;8.380;2022-07-10T07:04:16;5.10;;;1.77;;
8665;SDS011;4370;48.916;8.380;2022-07-10T07:06:42;4.33;;;1.70;;
8665;SDS011;4370;48.916;8.380;2022-07-10T07:09:08;6.87;;;2.17;;
8665;SDS011;4370;48.916;8.380;2022-07-10T07:11:34;4.57;;;1.90;;
8665;SDS011;4370;48.916;8.380;2022-07-10T07:14:00;5.07;;;2.10;;
8665;SDS011;4370;48.916;8.380;2022-07-10T07:16:26;5.60;;;2.20;;
8665;SDS011;4370;48.916;8.380;2022-07-10T07:19:04;3.80;;;1.70;;
8665;SDS011;4370;48.916;8.380;2022-07-10T07:21:31;6.57;;;1.93;;
8665;SDS011;4370;48.916;8.380;2022-07-10T07:24:15;2.33;;;1.60;;
8665;SDS011;4370;48.916;8.380;2022-07-10T07:26:43;5.43;;;2.07;;
8665;SDS011;4370;48.916;8.380;2022-07-10T07:29:11;5.00;;;2.00;;
8665;SDS011;4370;48.916;8.380;2022-07-10T07:31:39;2.47;;;1.70;;
8665;SDS011;4370;48.916;8.380;2022-07-10T07:34:04;5.63;;;1.70;;
8665;SDS011;4370;48.916;8.380;2022-07-10T07:36:31;6.50;;;1.80;;
8665;SDS011;4370;48.916;8.380;2022-07-10T07:38:57;3.30;;;2.00;;
8665;SDS011;4370;48.916;8.380;2022-07-10T07:41:23;4.67;;;2.00;;
8665;SDS011;4370;48.916;8.380;2022-07-10T07:43:49;4.63;;;1.97;;
8665;SDS011;4370;48.916;8.380;2022-07-10T07:46:15;8.87;;;2.00;;
8665;SDS011;4370;48.916;8.380;2022-07-10T07:48:41;4.40;;;1.80;;
8665;SDS011;4370;48.916;8.380;2022-07-10T07:51:16;3.80;;;1.83;;
8665;SDS011;4370;48.916;8.380;2022-07-10T07:53:42;4.03;;;1.60;;
8665;SDS011;4370;48.916;8.380;2022-07-10T07:56:08;7.63;;;1.90;;
8665;SDS011;4370;48.916;8.380;2022-07-10T07:58:34;4.30;;;1.70;;
8665;SDS011;4370;48.916;8.380;2022-07-10T08:01:00;4.00;;;1.73;;
8665;SDS011;4370;48.916;8.380;2022-07-10T08:03:26;6.40;;;1.70;;
8665;SDS011;4370;48.916;8.380;2022-07-10T08:05:52;2.90;;;1.57;;
8665;SDS011;4370;48.916;8.380;2022-07-10T08:08:18;3.70;;;1.80;;
8665;SDS011;4370;48.916;8.380;2022-07-10T08:10:44;4.40;;;2.00;;
8665;SDS011;4370;48.916;8.380;2022-07-10T08:13:10;4.03;;;1.80;;
8665;SDS011;4370;48.916;8.380;2022-07-10T08:15:36;3.90;;;1.60;;
8665;SDS011;4370;48.916;8.380;2022-07-10T08:18:02;4.70;;;1.60;;
8665;SDS011;4370;48.916;8.380;2022-07-10T08:20:32;5.33;;;1.70;;
8665;SDS011;4370;48.916;8.380;2022-07-10T08:22:58;2.97;;;1.67;;
8665;SDS011;4370;48.916;8.380;2022-07-10T08:25:24;5.07;;;1.53;;
8665;SDS011;4370;48.916;8.380;2022-07-10T08:27:50;4.23;;;1.63;;
8665;SDS011;4370;48.916;8.380;2022-07-10T08:30:16;3.67;;;1.70;;
8665;SDS011;4370;48.916;8.380;2022-07-10T08:32:43;5.90;;;2.07;;
8665;SDS011;4370;48.916;8.380;2022-07-10T08:35:09;1.97;;;1.40;;
8665;SDS011;4370;48.916;8.380;2022-07-10T08:37:38;2.63;;;1.43;;
8665;SDS011;4370;48.916;8.380;2022-07-10T08:40:05;3.30;;;1.47;;
8665;SDS011;4370;48.916;8.380;2022-07-10T08:42:33;3.80;;;1.67;;
8665;SDS011;4370;48.916;8.380;2022-07-10T08:45:00;2.67;;;1.67;;
8665;SDS011;4370;48.916;8.380;2022-07-10T08:47:26;4.27;;;1.50;;
8665;SDS011;4370;48.916;8.380;2022-07-10T08:49:56;2.97;;;1.57;;
8665;SDS011;4370;48.916;8.380;2022-07-10T08:54:48;3.67;;;1.27;;
8665;SDS011;4370;48.916;8.380;2022-07-10T08:57:14;4.80;;;1.40;;
8665;SDS011;4370;48.916;8.380;2022-07-10T08:59:42;3.50;;;1.53;;
8665;SDS011;4370;48.916;8.380;2022-07-10T09:02:08;3.27;;;1.50;;
8665;SDS011;4370;48.916;8.380;2022-07-10T09:04:33;4.37;;;1.60;;
8665;SDS011;4370;48.916;8.380;2022-07-10T09:06:59;3.93;;;1.40;;
8665;SDS011;4370;48.916;8.380;2022-07-10T09:09:25;4.00;;;1.73;;
8665;SDS011;4370;48.916;8.380;2022-07-10T09:11:55;4.33;;;1.50;;
8665;SDS011;4370;48.916;8.380;2022-07-10T09:14:22;2.87;;;1.50;;
8665;SDS011;4370;48.916;8.380;2022-07-10T09:16:50;4.20;;;1.30;;
8665;SDS011;4370;48.916;8.380;2022-07-10T09:19:23;1.83;;;1.20;;
8665;SDS011;4370;48.916;8.380;2022-07-10T09:24:16;18.93;;;3.03;;
8665;SDS011;4370;48.916;8.380;2022-07-10T09:26:46;6.80;;;1.73;;
8665;SDS011;4370;48.916;8.380;2022-07-10T09:29:24;4.37;;;1.43;;
8665;SDS011;4370;48.916;8.380;2022-07-10T09:34:16;3.27;;;1.43;;
8665;SDS011;4370;48.916;8.380;2022-07-10T09:36:43;4.13;;;1.70;;
8665;SDS011;4370;48.916;8.380;2022-07-10T09:39:09;5.30;;;1.77;;
8665;SDS011;4370;48.916;8.380;2022-07-10T09:41:35;8.43;;;1.67;;
8665;SDS011;4370;48.916;8.380;2022-07-10T09:46:27;3.47;;;1.50;;
8665;SDS011;4370;48.916;8.380;2022-07-10T09:49:12;3.43;;;1.20;;
8665;SDS011;4370;48.916;8.380;2022-07-10T09:51:45;2.67;;;1.20;;
8665;SDS011;4370;48.916;8.380;2022-07-10T09:54:12;3.77;;;1.30;;
8665;SDS011;4370;48.916;8.380;2022-07-10T09:56:42;2.53;;;1.20;;
8665;SDS011;4370;48.916;8.380;2022-07-10T09:59:13;1.50;;;1.00;;
8665;SDS011;4370;48.916;8.380;2022-07-10T10:01:48;4.80;;;1.20;;
8665;SDS011;4370;48.916;8.380;2022-07-10T10:04:15;2.80;;;1.43;;
8665;SDS011;4370;48.916;8.380;2022-07-10T10:06:43;2.30;;;1.20;;
8665;SDS011;4370;48.916;8.380;2022-07-10T10:09:24;3.60;;;1.47;;
8665;SDS011;4370;48.916;8.380;2022-07-10T10:11:56;1.93;;;1.10;;
8665;SDS011;4370;48.916;8.380;2022-07-10T10:14:24;1.80;;;1.00;;
8665;SDS011;4370;48.916;8.380;2022-07-10T10:16:52;2.63;;;1.10;;
8665;SDS011;4370;48.916;8.380;2022-07-10T10:19:19;2.67;;;1.13;;
8665;SDS011;4370;48.916;8.380;2022-07-10T10:22:04;4.07;;;1.40;;
8665;SDS011;4370;48.916;8.380;2022-07-10T10:24:31;3.57;;;1.17;;
8665;SDS011;4370;48.916;8.380;2022-07-10T10:26:58;4.37;;;1.10;;
8665;SDS011;4370;48.916;8.380;2022-07-10T10:29:24;3.13;;;1.30;;
8665;SDS011;4370;48.916;8.380;2022-07-10T10:31:50;3.23;;;1.20;;
8665;SDS011;4370;48.916;8.380;2022-07-10T10:34:37;2.13;;;1.10;;
8665;SDS011;4370;48.916;8.380;2022-07-10T10:37:03;4.90;;;1.20;;
8665;SDS011;4370;48.916;8.380;2022-07-10T10:39:32;4.67;;;1.27;;
8665;SDS011;4370;48.916;8.380;2022-07-10T10:45:44;2.27;;;1.10;;
8665;SDS011;4370;48.916;8.380;2022-07-10T10:48:09;3.27;;;1.20;;
8665;SDS011;4370;48.916;8.380;2022-07-10T10:50:40;1.83;;;1.17;;
8665;SDS011;4370;48.916;8.380;2022-07-10T10:53:14;3.33;;;1.10;;
8665;SDS011;4370;48.916;8.380;2022-07-10T10:55:42;1.90;;;1.07;;
8665;SDS011;4370;48.916;8.380;2022-07-10T11:06:42;2.87;;;1.40;;
8665;SDS011;4370;48.916;8.380;2022-07-10T11:09:26;1.90;;;1.10;;
8665;SDS011;4370;48.916;8.380;2022-07-10T11:14:30;3.17;;;1.20;;
8665;SDS011;4370;48.916;8.380;2022-07-10T11:16:56;2.27;;;1.20;;
8665;SDS011;4370;48.916;8.380;2022-07-10T11:19:22;2.47;;;1.00;;
8665;SDS011;4370;48.916;8.380;2022-07-10T11:21:50;1.77;;;1.20;;
8665;SDS011;4370;48.916;8.380;2022-07-10T11:27:09;3.77;;;1.00;;
8665;SDS011;4370;48.916;8.380;2022-07-10T11:30:00;3.80;;;1.30;;
8665;SDS011;4370;48.916;8.380;2022-07-10T11:32:27;1.93;;;1.03;;
8665;SDS011;4370;48.916;8.380;2022-07-10T11:34:53;2.13;;;1.10;;
8665;SDS011;4370;48.916;8.380;2022-07-10T11:37:19;3.97;;;1.17;;
8665;SDS011;4370;48.916;8.380;2022-07-10T11:39:45;3.23;;;1.10;;
8665;SDS011;4370;48.916;8.380;2022-07-10T11:42:11;3.90;;;1.07;;
8665;SDS011;4370;48.916;8.380;2022-07-10T11:44:36;4.03;;;1.50;;
8665;SDS011;4370;48.916;8.380;2022-07-10T11:47:03;3.13;;;1.00;;
8665;SDS011;4370;48.916;8.380;2022-07-10T11:49:29;3.93;;;1.30;;
8665;SDS011;4370;48.916;8.380;2022-07-10T11:52:00;3.70;;;1.10;;
8665;SDS011;4370;48.916;8.380;2022-07-10T11:54:28;2.30;;;1.17;;
8665;SDS011;4370;48.916;8.380;2022-07-10T11:56:54;2.67;;;1.20;;
8665;SDS011;4370;48.916;8.380;2022-07-10T11:59:24;3.07;;;0.90;;
8665;SDS011;4370;48.916;8.380;2022-07-10T12:01:52;3.67;;;1.00;;
8665;SDS011;4370;48.916;8.380;2022-07-10T12:04:20;3.03;;;1.10;;
8665;SDS011;4370;48.916;8.380;2022-07-10T12:06:51;3.83;;;1.03;;
8665;SDS011;4370;48.916;8.380;2022-07-10T12:09:19;2.33;;;1.00;;
8665;SDS011;4370;48.916;8.380;2022-07-10T12:12:01;2.10;;;1.10;;
8665;SDS011;4370;48.916;8.380;2022-07-10T12:14:29;2.00;;;1.03;;
8665;SDS011;4370;48.916;8.380;2022-07-10T12:16:55;4.43;;;1.10;;
8665;SDS011;4370;48.916;8.380;2022-07-10T12:19:23;3.70;;;1.63;;
8665;SDS011;4370;48.916;8.380;2022-07-10T12:21:55;3.17;;;1.00;;
8665;SDS011;4370;48.916;8.380;2022-07-10T12:24:22;2.53;;;1.30;;
8665;SDS011;4370;48.916;8.380;2022-07-10T12:26:49;3.27;;;1.23;;
8665;SDS011;4370;48.916;8.380;2022-07-10T12:31:58;3.10;;;1.10;;
8665;SDS011;4370;48.916;8.380;2022-07-10T12:34:40;2.63;;;1.10;;
8665;SDS011;4370;48.916;8.380;2022-07-10T12:37:15;1.97;;;0.90;;
8665;SDS011;4370;48.916;8.380;2022-07-10T12:42:29;4.00;;;0.97;;
8665;SDS011;4370;48.916;8.380;2022-07-10T12:45:08;2.00;;;1.00;;
8665;SDS011;4370;48.916;8.380;2022-07-10T12:47:47;2.57;;;1.20;;
8665;SDS011;4370;48.916;8.380;2022-07-10T12:50:15;3.90;;;1.23;;
8665;SDS011;4370;48.916;8.380;2022-07-10T12:52:42;2.07;;;1.10;;
8665;SDS011;4370;48.916;8.380;2022-07-10T12:55:14;3.73;;;1.10;;
8665;SDS011;4370;48.916;8.380;2022-07-10T13:03:05;2.23;;;1.10;;
8665;SDS011;4370;48.916;8.380;2022-07-10T13:08:05;3.17;;;1.27;;
8665;SDS011;4370;48.916;8.380;2022-07-10T13:10:50;2.67;;;1.30;;
8665;SDS011;4370;48.916;8.380;2022-07-10T13:13:20;3.53;;;1.00;;
8665;SDS011;4370;48.916;8.380;2022-07-10T13:15:46;2.13;;;1.20;;
8665;SDS011;4370;48.916;8.380;2022-07-10T13:18:15;3.30;;;1.20;;
8665;SDS011;4370;48.916;8.380;2022-07-10T13:20:43;4.47;;;1.30;;
8665;SDS011;4370;48.916;8.380;2022-07-10T13:23:09;5.47;;;1.43;;
8665;SDS011;4370;48.916;8.380;2022-07-10T13:25:38;2.97;;;1.10;;
8665;SDS011;4370;48.916;8.380;2022-07-10T13:28:05;4.17;;;1.00;;
8665;SDS011;4370;48.916;8.380;2022-07-10T13:30:32;3.43;;;1.20;;
8665;SDS011;4370;48.916;8.380;2022-07-10T13:32:58;1.33;;;0.80;;
8665;SDS011;4370;48.916;8.380;2022-07-10T13:35:24;2.80;;;1.20;;
8665;SDS011;4370;48.916;8.380;2022-07-10T13:37:53;3.60;;;1.10;;
8665;SDS011;4370;48.916;8.380;2022-07-10T13:40:19;2.70;;;1.10;;
8665;SDS011;4370;48.916;8.380;2022-07-10T13:42:44;4.20;;;1.20;;
8665;SDS011;4370;48.916;8.380;2022-07-10T13:45:10;2.87;;;1.20;;
8665;SDS011;4370;48.916;8.380;2022-07-10T13:47:36;1.73;;;0.90;;
8665;SDS011;4370;48.916;8.380;2022-07-10T13:50:02;3.03;;;1.20;;
8665;SDS011;4370;48.916;8.380;2022-07-10T13:52:28;3.10;;;0.97;;
8665;SDS011;4370;48.916;8.380;2022-07-10T13:54:53;2.37;;;0.90;;
8665;SDS011;4370;48.916;8.380;2022-07-10T13:57:19;1.77;;;1.00;;
8665;SDS011;4370;48.916;8.380;2022-07-10T13:59:45;2.30;;;1.13;;
8665;SDS011;4370;48.916;8.380;2022-07-10T14:02:11;7.07;;;1.57;;
8665;SDS011;4370;48.916;8.380;2022-07-10T14:04:37;4.07;;;1.73;;
8665;SDS011;4370;48.916;8.380;2022-07-10T14:07:04;2.37;;;1.10;;
8665;SDS011;4370;48.916;8.380;2022-07-10T14:09:30;2.60;;;1.13;;
8665;SDS011;4370;48.916;8.380;2022-07-10T14:11:55;2.17;;;1.10;;
8665;SDS011;4370;48.916;8.380;2022-07-10T14:14:21;3.77;;;1.30;;
8665;SDS011;4370;48.916;8.380;2022-07-10T14:16:47;2.97;;;1.40;;
8665;SDS011;4370;48.916;8.380;2022-07-10T14:19:14;2.17;;;1.20;;
8665;SDS011;4370;48.916;8.380;2022-07-10T14:21:40;6.67;;;1.40;;
8665;SDS011;4370;48.916;8.380;2022-07-10T14:24:06;1.93;;;1.10;;
8665;SDS011;4370;48.916;8.380;2022-07-10T14:26:32;2.97;;;1.20;;
8665;SDS011;4370;48.916;8.380;2022-07-10T14:29:00;3.80;;;1.20;;
8665;SDS011;4370;48.916;8.380;2022-07-10T14:31:27;3.33;;;1.30;;
8665;SDS011;4370;48.916;8.380;2022-07-10T14:33:53;3.37;;;1.40;;
8665;SDS011;4370;48.916;8.380;2022-07-10T14:36:18;4.73;;;1.17;;
8665;SDS011;4370;48.916;8.380;2022-07-10T14:38:44;3.37;;;1.10;;
8665;SDS011;4370;48.916;8.380;2022-07-10T14:41:10;3.03;;;1.20;;
8665;SDS011;4370;48.916;8.380;2022-07-10T14:43:35;2.50;;;1.20;;
8665;SDS011;4370;48.916;8.380;2022-07-10T14:46:01;4.30;;;1.30;;
8665;SDS011;4370;48.916;8.380;2022-07-10T14:48:32;2.37;;;1.40;;
8665;SDS011;4370;48.916;8.380;2022-07-10T14:50:59;2.80;;;1.40;;
8665;SDS011;4370;48.916;8.380;2022-07-10T14:53:25;4.70;;;1.20;;
8665;SDS011;4370;48.916;8.380;2022-07-10T14:55:51;3.63;;;1.43;;
8665;SDS011;4370;48.916;8.380;2022-07-10T14:58:17;3.37;;;1.30;;
8665;SDS011;4370;48.916;8.380;2022-07-10T15:00:43;3.77;;;1.33;;
8665;SDS011;4370;48.916;8.380;2022-07-10T15:03:08;2.87;;;1.40;;
8665;SDS011;4370;48.916;8.380;2022-07-10T15:05:34;2.20;;;1.50;;
8665;SDS011;4370;48.916;8.380;2022-07-10T15:08:00;2.13;;;1.20;;
8665;SDS011;4370;48.916;8.380;2022-07-10T15:10:27;3.33;;;1.20;;
8665;SDS011;4370;48.916;8.380;2022-07-10T15:12:53;2.80;;;1.30;;
8665;SDS011;4370;48.916;8.380;2022-07-10T15:15:19;3.93;;;1.60;;
8665;SDS011;4370;48.916;8.380;2022-07-10T15:17:45;3.37;;;1.30;;
8665;SDS011;4370;48.916;8.380;2022-07-10T15:20:11;2.63;;;1.10;;
8665;SDS011;4370;48.916;8.380;2022-07-10T15:22:40;2.67;;;1.30;;
8665;SDS011;4370;48.916;8.380;2022-07-10T15:25:05;10.13;;;1.70;;
8665;SDS011;4370;48.916;8.380;2022-07-10T15:27:33;2.57;;;1.43;;
8665;SDS011;4370;48.916;8.380;2022-07-10T15:29:59;2.90;;;1.20;;
8665;SDS011;4370;48.916;8.380;2022-07-10T15:32:24;3.03;;;1.37;;
8665;SDS011;4370;48.916;8.380;2022-07-10T15:34:50;3.23;;;1.43;;
8665;SDS011;4370;48.916;8.380;2022-07-10T15:37:16;6.77;;;1.23;;
8665;SDS011;4370;48.916;8.380;2022-07-10T15:39:43;7.53;;;1.57;;
8665;SDS011;4370;48.916;8.380;2022-07-10T15:42:09;2.27;;;1.33;;
8665;SDS011;4370;48.916;8.380;2022-07-10T15:44:36;3.03;;;1.40;;
8665;SDS011;4370;48.916;8.380;2022-07-10T15:47:01;2.77;;;1.40;;
8665;SDS011;4370;48.916;8.380;2022-07-10T15:49:27;3.97;;;1.07;;
8665;SDS011;4370;48.916;8.380;2022-07-10T15:51:53;10.10;;;1.50;;
8665;SDS011;4370;48.916;8.380;2022-07-10T15:54:20;2.20;;;1.23;;
8665;SDS011;4370;48.916;8.380;2022-07-10T15:56:46;2.90;;;1.50;;
8665;SDS011;4370;48.916;8.380;2022-07-10T15:59:12;4.17;;;1.47;;